sensor_id;sensor_type;location;lat;lon;timestamp;P1;P2;P0
21358;PMS7003;13506;50.852;20.632;2022-07-17T00:00:52;7.00;7.00;3.00
21358;PMS7003;13506;50.852;20.632;2022-07-17T00:03:19;6.80;6.60;3.00
21358;PMS7003;13506;50.852;20.632;2022-07-17T00:05:48;7.00;7.00;3.40
21358;PMS7003;13506;50.852;20.632;2022-07-17T00:08:16;5.80;5.80;2.60
21358;PMS7003;13506;50.852;20.632;2022-07-17T00:10:44;7.80;7.00;3.20
21358;PMS7003;13506;50.852;20.632;2022-07-17T00:13:11;6.60;6.60;2.20
21358;PMS7003;13506;50.852;20.632;2022-07-17T00:15:39;6.00;6.00;2.60
21358;PMS7003;13506;50.852;20.632;2022-07-17T00:18:06;7.00;6.20;3.00
21358;PMS7003;13506;50.852;20.632;2022-07-17T00:20:34;4.80;4.60;2.00
21358;PMS7003;13506;50.852;20.632;2022-07-17T00:23:03;5.80;5.80;2.80
21358;PMS7003;13506;50.852;20.632;2022-07-17T00:25:31;5.80;5.80;3.00
21358;PMS7003;13506;50.852;20.632;2022-07-17T00:27:58;8.60;6.20;3.00
21358;PMS7003;13506;50.852;20.632;2022-07-17T00:30:26;7.00;7.00;3.00
21358;PMS7003;13506;50.852;20.632;2022-07-17T00:32:53;5.80;5.80;3.00
21358;PMS7003;13506;50.852;20.632;2022-07-17T00:35:21;7.00;7.00;2.80
21358;PMS7003;13506;50.852;20.632;2022-07-17T00:37:49;5.20;5.20;2.00
21358;PMS7003;13506;50.852;20.632;2022-07-17T00:40:19;6.20;5.20;2.40
21358;PMS7003;13506;50.852;20.632;2022-07-17T00:42:49;5.60;5.00;2.40
21358;PMS7003;13506;50.852;20.632;2022-07-17T00:45:18;6.00;6.00;3.00
21358;PMS7003;13506;50.852;20.632;2022-07-17T00:47:51;6.80;5.40;2.40
21358;PMS7003;13506;50.852;20.632;2022-07-17T00:50:21;6.00;5.60;3.00
21358;PMS7003;13506;50.852;20.632;2022-07-17T00:52:50;5.40;5.40;3.00
21358;PMS7003;13506;50.852;20.632;2022-07-17T00:55:20;7.20;6.60;3.00
21358;PMS7003;13506;50.852;20.632;2022-07-17T00:57:50;4.40;4.20;2.40
21358;PMS7003;13506;50.852;20.632;2022-07-17T01:00:20;8.00;5.20;2.20
21358;PMS7003;13506;50.852;20.632;2022-07-17T01:02:49;7.40;6.20;2.80
21358;PMS7003;13506;50.852;20.632;2022-07-17T01:05:18;6.00;6.00;2.00
21358;PMS7003;13506;50.852;20.632;2022-07-17T01:07:47;6.20;6.20;3.00
21358;PMS7003;13506;50.852;20.632;2022-07-17T01:10:15;6.40;5.00;2.00
21358;PMS7003;13506;50.852;20.632;2022-07-17T01:12:46;6.80;6.60;2.40
21358;PMS7003;13506;50.852;20.632;2022-07-17T01:15:14;7.80;5.20;2.80
21358;PMS7003;13506;50.852;20.632;2022-07-17T01:17:43;5.60;5.60;2.20
21358;PMS7003;13506;50.852;20.632;2022-07-17T01:20:11;6.80;6.60;3.00
21358;PMS7003;13506;50.852;20.632;2022-07-17T01:22:41;5.40;5.40;2.00
21358;PMS7003;13506;50.852;20.632;2022-07-17T01:25:09;8.60;5.00;2.80
21358;PMS7003;13506;50.852;20.632;2022-07-17T01:27:37;6.80;6.80;3.00
21358;PMS7003;13506;50.852;20.632;2022-07-17T01:30:06;7.40;6.20;3.00
21358;PMS7003;13506;50.852;20.632;2022-07-17T01:32:36;5.00;4.00;2.00
21358;PMS7003;13506;50.852;20.632;2022-07-17T01:35:07;5.20;5.20;2.00
21358;PMS7003;13506;50.852;20.632;2022-07-17T01:37:40;6.80;5.00;2.00
21358;PMS7003;13506;50.852;20.632;2022-07-17T01:40:11;5.60;5.60;2.00
21358;PMS7003;13506;50.852;20.632;2022-07-17T01:42:42;5.40;5.40;2.40
21358;PMS7003;13506;50.852;20.632;2022-07-17T01:45:13;6.00;6.00;3.00
21358;PMS7003;13506;50.852;20.632;2022-07-17T01:47:42;5.40;4.00;1.20
21358;PMS7003;13506;50.852;20.632;2022-07-17T01:50:10;6.80;6.80;3.00
21358;PMS7003;13506;50.852;20.632;2022-07-17T01:52:39;5.60;5.20;2.80
21358;PMS7003;13506;50.852;20.632;2022-07-17T01:55:11;5.80;5.80;2.40
21358;PMS7003;13506;50.852;20.632;2022-07-17T01:57:41;6.80;6.80;3.00
21358;PMS7003;13506;50.852;20.632;2022-07-17T02:00:11;7.20;4.60;2.20
21358;PMS7003;13506;50.852;20.632;2022-07-17T02:02:42;6.60;5.00;2.20
21358;PMS7003;13506;50.852;20.632;2022-07-17T02:05:10;5.80;5.60;2.00
21358;PMS7003;13506;50.852;20.632;2022-07-17T02:07:37;6.00;6.00;3.00
21358;PMS7003;13506;50.852;20.632;2022-07-17T02:10:08;5.20;5.20;2.20
21358;PMS7003;13506;50.852;20.632;2022-07-17T02:12:36;5.60;5.60;2.20
21358;PMS7003;13506;50.852;20.632;2022-07-17T02:15:04;4.40;4.40;2.00
21358;PMS7003;13506;50.852;20.632;2022-07-17T02:17:37;5.40;5.00;2.20
21358;PMS7003;13506;50.852;20.632;2022-07-17T02:20:05;7.60;7.40;3.40
21358;PMS7003;13506;50.852;20.632;2022-07-17T02:22:35;8.00;7.00;3.00
21358;PMS7003;13506;50.852;20.632;2022-07-17T02:25:04;5.20;5.20;3.00
21358;PMS7003;13506;50.852;20.632;2022-07-17T02:27:35;7.80;6.80;3.00
21358;PMS7003;13506;50.852;20.632;2022-07-17T02:30:03;8.20;6.20;2.20
21358;PMS7003;13506;50.852;20.632;2022-07-17T02:32:32;6.20;6.20;2.20
21358;PMS7003;13506;50.852;20.632;2022-07-17T02:35:00;5.80;5.80;3.00
21358;PMS7003;13506;50.852;20.632;2022-07-17T02:37:28;6.40;5.20;2.60
21358;PMS7003;13506;50.852;20.632;2022-07-17T02:39:55;7.40;6.60;3.00
21358;PMS7003;13506;50.852;20.632;2022-07-17T02:42:25;8.00;7.60;2.20
21358;PMS7003;13506;50.852;20.632;2022-07-17T02:44:55;4.80;4.80;2.00
21358;PMS7003;13506;50.852;20.632;2022-07-17T02:47:26;5.20;4.80;2.00
21358;PMS7003;13506;50.852;20.632;2022-07-17T02:49:57;7.40;6.00;2.40
21358;PMS7003;13506;50.852;20.632;2022-07-17T02:52:27;6.80;6.80;3.00
21358;PMS7003;13506;50.852;20.632;2022-07-17T02:54:54;5.60;5.60;2.40
21358;PMS7003;13506;50.852;20.632;2022-07-17T02:57:22;6.40;5.80;3.60
21358;PMS7003;13506;50.852;20.632;2022-07-17T02:59:50;8.00;8.00;3.20
21358;PMS7003;13506;50.852;20.632;2022-07-17T03:02:19;8.00;6.00;2.60
21358;PMS7003;13506;50.852;20.632;2022-07-17T03:04:46;6.40;6.40;2.60
21358;PMS7003;13506;50.852;20.632;2022-07-17T03:07:14;5.20;5.20;2.60
21358;PMS7003;13506;50.852;20.632;2022-07-17T03:09:41;7.60;6.20;3.00
21358;PMS7003;13506;50.852;20.632;2022-07-17T03:12:08;6.00;6.00;2.60
21358;PMS7003;13506;50.852;20.632;2022-07-17T03:14:37;6.00;6.00;3.00
21358;PMS7003;13506;50.852;20.632;2022-07-17T03:17:05;7.60;7.60;4.60
21358;PMS7003;13506;50.852;20.632;2022-07-17T03:19:34;7.60;6.60;3.00
21358;PMS7003;13506;50.852;20.632;2022-07-17T03:22:02;7.40;5.20;3.60
21358;PMS7003;13506;50.852;20.632;2022-07-17T03:24:30;6.00;6.00;3.00
21358;PMS7003;13506;50.852;20.632;2022-07-17T03:26:57;8.40;6.40;3.00
21358;PMS7003;13506;50.852;20.632;2022-07-17T03:29:25;7.00;7.00;3.00
21358;PMS7003;13506;50.852;20.632;2022-07-17T03:31:53;9.40;6.00;2.00
21358;PMS7003;13506;50.852;20.632;2022-07-17T03:34:21;6.20;5.20;2.20
21358;PMS7003;13506;50.852;20.632;2022-07-17T03:36:49;6.40;6.20;2.40
21358;PMS7003;13506;50.852;20.632;2022-07-17T03:39:17;6.80;6.80;3.40
21358;PMS7003;13506;50.852;20.632;2022-07-17T03:41:44;7.40;4.60;2.00
21358;PMS7003;13506;50.852;20.632;2022-07-17T03:44:12;5.40;5.20;2.60
21358;PMS7003;13506;50.852;20.632;2022-07-17T03:46:40;5.40;5.40;2.20
21358;PMS7003;13506;50.852;20.632;2022-07-17T03:49:07;5.20;5.20;2.60
21358;PMS7003;13506;50.852;20.632;2022-07-17T03:51:35;8.00;7.00;2.80
21358;PMS7003;13506;50.852;20.632;2022-07-17T03:54:05;7.20;7.20;3.20
21358;PMS7003;13506;50.852;20.632;2022-07-17T03:56:32;7.60;6.20;2.20
21358;PMS7003;13506;50.852;20.632;2022-07-17T03:59:00;5.20;4.40;2.00
21358;PMS7003;13506;50.852;20.632;2022-07-17T04:01:27;4.00;3.60;1.80
21358;PMS7003;13506;50.852;20.632;2022-07-17T04:03:55;6.60;6.60;3.00
21358;PMS7003;13506;50.852;20.632;2022-07-17T04:06:23;6.00;6.00;2.20
21358;PMS7003;13506;50.852;20.632;2022-07-17T04:08:50;8.00;6.40;3.00
21358;PMS7003;13506;50.852;20.632;2022-07-17T04:11:19;6.60;5.80;2.00
21358;PMS7003;13506;50.852;20.632;2022-07-17T04:13:46;5.60;5.60;3.00
21358;PMS7003;13506;50.852;20.632;2022-07-17T04:16:14;6.60;6.60;3.00
21358;PMS7003;13506;50.852;20.632;2022-07-17T04:18:42;7.60;7.60;2.20
21358;PMS7003;13506;50.852;20.632;2022-07-17T04:21:09;7.80;6.80;3.00
21358;PMS7003;13506;50.852;20.632;2022-07-17T04:23:38;4.40;4.00;2.00
21358;PMS7003;13506;50.852;20.632;2022-07-17T04:26:05;6.20;6.00;2.00
21358;PMS7003;13506;50.852;20.632;2022-07-17T04:28:35;5.80;5.80;2.00
21358;PMS7003;13506;50.852;20.632;2022-07-17T04:31:03;7.40;6.60;2.60
21358;PMS7003;13506;50.852;20.632;2022-07-17T04:33:30;6.20;6.00;3.00
21358;PMS7003;13506;50.852;20.632;2022-07-17T04:35:58;7.20;6.00;2.00
21358;PMS7003;13506;50.852;20.632;2022-07-17T04:38:25;7.40;6.00;3.00
21358;PMS7003;13506;50.852;20.632;2022-07-17T04:40:52;4.00;4.00;2.00
21358;PMS7003;13506;50.852;20.632;2022-07-17T04:43:20;7.20;5.00;3.00
21358;PMS7003;13506;50.852;20.632;2022-07-17T04:45:49;7.80;5.00;2.00
21358;PMS7003;13506;50.852;20.632;2022-07-17T04:48:16;6.60;5.40;2.00
21358;PMS7003;13506;50.852;20.632;2022-07-17T04:50:44;6.20;6.20;2.00
21358;PMS7003;13506;50.852;20.632;2022-07-17T04:53:11;5.80;5.80;3.00
21358;PMS7003;13506;50.852;20.632;2022-07-17T04:55:38;6.60;5.20;2.00
21358;PMS7003;13506;50.852;20.632;2022-07-17T04:58:06;4.20;4.00;2.00
21358;PMS7003;13506;50.852;20.632;2022-07-17T05:00:33;5.40;5.00;2.00
21358;PMS7003;13506;50.852;20.632;2022-07-17T05:03:02;6.40;5.60;2.20
21358;PMS7003;13506;50.852;20.632;2022-07-17T05:05:30;5.00;4.60;2.00
21358;PMS7003;13506;50.852;20.632;2022-07-17T05:07:57;7.20;4.80;2.80
21358;PMS7003;13506;50.852;20.632;2022-07-17T05:10:25;5.00;4.00;1.00
21358;PMS7003;13506;50.852;20.632;2022-07-17T05:12:53;6.60;6.60;3.00
21358;PMS7003;13506;50.852;20.632;2022-07-17T05:15:20;8.00;6.20;3.20
21358;PMS7003;13506;50.852;20.632;2022-07-17T05:17:48;7.00;4.00;1.20
21358;PMS7003;13506;50.852;20.632;2022-07-17T05:20:17;6.40;5.60;2.00
21358;PMS7003;13506;50.852;20.632;2022-07-17T05:22:44;7.60;7.00;3.00
21358;PMS7003;13506;50.852;20.632;2022-07-17T05:25:12;4.80;4.80;2.00
21358;PMS7003;13506;50.852;20.632;2022-07-17T05:27:39;4.00;4.00;2.00
21358;PMS7003;13506;50.852;20.632;2022-07-17T05:30:07;4.00;4.00;2.00
21358;PMS7003;13506;50.852;20.632;2022-07-17T05:32:35;6.00;4.20;2.00
21358;PMS7003;13506;50.852;20.632;2022-07-17T05:35:03;4.60;4.60;2.20
21358;PMS7003;13506;50.852;20.632;2022-07-17T05:37:33;4.00;4.00;2.00
21358;PMS7003;13506;50.852;20.632;2022-07-17T05:40:00;5.00;5.00;2.00
21358;PMS7003;13506;50.852;20.632;2022-07-17T05:42:28;6.40;4.40;2.40
21358;PMS7003;13506;50.852;20.632;2022-07-17T05:44:56;4.00;4.00;2.00
21358;PMS7003;13506;50.852;20.632;2022-07-17T05:47:24;5.00;4.00;2.00
21358;PMS7003;13506;50.852;20.632;2022-07-17T05:49:52;4.60;4.40;2.00
21358;PMS7003;13506;50.852;20.632;2022-07-17T05:52:20;5.00;4.40;2.00
21358;PMS7003;13506;50.852;20.632;2022-07-17T05:54:49;5.80;5.00;2.40
21358;PMS7003;13506;50.852;20.632;2022-07-17T05:57:16;9.80;8.40;4.00
21358;PMS7003;13506;50.852;20.632;2022-07-17T05:59:44;5.40;4.80;2.00
21358;PMS7003;13506;50.852;20.632;2022-07-17T06:02:11;5.20;5.20;2.00
21358;PMS7003;13506;50.852;20.632;2022-07-17T06:04:38;5.00;5.00;2.00
21358;PMS7003;13506;50.852;20.632;2022-07-17T06:07:06;6.00;6.00;3.40
21358;PMS7003;13506;50.852;20.632;2022-07-17T06:09:34;4.80;4.00;2.00
21358;PMS7003;13506;50.852;20.632;2022-07-17T06:12:03;6.60;6.60;3.00
21358;PMS7003;13506;50.852;20.632;2022-07-17T06:14:31;6.40;5.20;2.60
21358;PMS7003;13506;50.852;20.632;2022-07-17T06:16:59;4.40;4.20;2.20
21358;PMS7003;13506;50.852;20.632;2022-07-17T06:19:26;6.00;6.00;3.00
21358;PMS7003;13506;50.852;20.632;2022-07-17T06:21:54;5.80;5.80;3.00
21358;PMS7003;13506;50.852;20.632;2022-07-17T06:24:21;10.20;7.80;3.00
21358;PMS7003;13506;50.852;20.632;2022-07-17T06:26:49;6.40;5.00;3.20
21358;PMS7003;13506;50.852;20.632;2022-07-17T06:29:18;6.60;6.60;3.00
21358;PMS7003;13506;50.852;20.632;2022-07-17T06:31:45;6.00;5.60;3.00
21358;PMS7003;13506;50.852;20.632;2022-07-17T06:34:13;10.20;5.40;3.20
21358;PMS7003;13506;50.852;20.632;2022-07-17T06:36:41;8.40;6.80;3.20
21358;PMS7003;13506;50.852;20.632;2022-07-17T06:39:08;7.00;5.40;3.60
21358;PMS7003;13506;50.852;20.632;2022-07-17T06:41:36;5.80;4.80;2.80
21358;PMS7003;13506;50.852;20.632;2022-07-17T06:44:04;9.60;8.20;3.00
21358;PMS7003;13506;50.852;20.632;2022-07-17T06:46:33;6.00;6.00;3.40
21358;PMS7003;13506;50.852;20.632;2022-07-17T06:49:00;8.00;8.00;4.20
21358;PMS7003;13506;50.852;20.632;2022-07-17T06:51:28;5.80;5.80;2.80
21358;PMS7003;13506;50.852;20.632;2022-07-17T06:53:56;7.80;5.80;3.00
21358;PMS7003;13506;50.852;20.632;2022-07-17T06:56:23;6.00;6.00;3.60
21358;PMS7003;13506;50.852;20.632;2022-07-17T06:58:51;5.00;5.00;3.20
21358;PMS7003;13506;50.852;20.632;2022-07-17T07:01:18;9.00;9.00;3.00
21358;PMS7003;13506;50.852;20.632;2022-07-17T07:03:47;6.80;5.20;3.00
21358;PMS7003;13506;50.852;20.632;2022-07-17T07:06:15;6.00;6.00;3.00
21358;PMS7003;13506;50.852;20.632;2022-07-17T07:08:42;5.00;5.00;3.00
21358;PMS7003;13506;50.852;20.632;2022-07-17T07:11:10;7.40;6.20;3.00
21358;PMS7003;13506;50.852;20.632;2022-07-17T07:13:38;6.00;6.00;3.00
21358;PMS7003;13506;50.852;20.632;2022-07-17T07:16:05;5.80;5.40;3.00
21358;PMS7003;13506;50.852;20.632;2022-07-17T07:18:33;6.00;5.00;3.00
21358;PMS7003;13506;50.852;20.632;2022-07-17T07:21:02;5.20;5.20;3.00
21358;PMS7003;13506;50.852;20.632;2022-07-17T07:23:29;6.00;5.40;3.00
21358;PMS7003;13506;50.852;20.632;2022-07-17T07:25:57;5.20;5.00;3.00
21358;PMS7003;13506;50.852;20.632;2022-07-17T07:28:24;5.00;5.00;3.00
21358;PMS7003;13506;50.852;20.632;2022-07-17T07:30:52;5.00;5.00;3.00
21358;PMS7003;13506;50.852;20.632;2022-07-17T07:33:20;8.00;6.00;3.40
21358;PMS7003;13506;50.852;20.632;2022-07-17T07:35:48;6.00;6.00;3.60
21358;PMS7003;13506;50.852;20.632;2022-07-17T07:38:17;7.60;6.40;3.00
21358;PMS7003;13506;50.852;20.632;2022-07-17T07:40:44;4.00;4.00;1.40
21358;PMS7003;13506;50.852;20.632;2022-07-17T07:43:12;5.40;4.40;2.20
21358;PMS7003;13506;50.852;20.632;2022-07-17T07:45:40;5.80;5.20;2.80
21358;PMS7003;13506;50.852;20.632;2022-07-17T07:48:08;5.60;4.20;2.00
21358;PMS7003;13506;50.852;20.632;2022-07-17T07:50:36;5.60;5.40;3.00
21358;PMS7003;13506;50.852;20.632;2022-07-17T07:53:03;5.20;4.00;2.40
21358;PMS7003;13506;50.852;20.632;2022-07-17T07:55:33;6.60;4.40;2.00
21358;PMS7003;13506;50.852;20.632;2022-07-17T07:58:01;4.20;4.20;2.80
21358;PMS7003;13506;50.852;20.632;2022-07-17T08:00:29;4.00;4.00;2.00
21358;PMS7003;13506;50.852;20.632;2022-07-17T08:02:56;3.80;3.80;1.80
21358;PMS7003;13506;50.852;20.632;2022-07-17T08:05:24;4.00;4.00;1.80
21358;PMS7003;13506;50.852;20.632;2022-07-17T08:07:51;5.00;5.00;2.00
21358;PMS7003;13506;50.852;20.632;2022-07-17T08:10:19;3.80;3.80;1.80
21358;PMS7003;13506;50.852;20.632;2022-07-17T08:12:49;20.40;18.20;11.20
21358;PMS7003;13506;50.852;20.632;2022-07-17T08:15:17;6.60;6.40;3.40
21358;PMS7003;13506;50.852;20.632;2022-07-17T08:17:47;7.00;6.00;3.00
21358;PMS7003;13506;50.852;20.632;2022-07-17T08:20:17;8.80;7.00;4.40
21358;PMS7003;13506;50.852;20.632;2022-07-17T08:22:47;5.00;5.00;2.00
21358;PMS7003;13506;50.852;20.632;2022-07-17T08:25:15;4.40;3.00;1.00
21358;PMS7003;13506;50.852;20.632;2022-07-17T08:27:44;3.80;3.60;1.20
21358;PMS7003;13506;50.852;20.632;2022-07-17T08:30:13;4.40;4.40;1.80
21358;PMS7003;13506;50.852;20.632;2022-07-17T08:32:41;3.00;3.00;1.20
21358;PMS7003;13506;50.852;20.632;2022-07-17T08:35:10;4.20;4.20;2.00
21358;PMS7003;13506;50.852;20.632;2022-07-17T08:37:41;3.80;3.00;1.00
21358;PMS7003;13506;50.852;20.632;2022-07-17T08:40:15;3.40;3.40;0.80
21358;PMS7003;13506;50.852;20.632;2022-07-17T08:42:48;4.00;3.00;1.00
21358;PMS7003;13506;50.852;20.632;2022-07-17T08:45:18;3.60;3.60;1.00
21358;PMS7003;13506;50.852;20.632;2022-07-17T08:47:46;3.00;3.00;1.00
21358;PMS7003;13506;50.852;20.632;2022-07-17T08:50:14;5.40;3.60;1.00
21358;PMS7003;13506;50.852;20.632;2022-07-17T08:52:42;3.40;3.40;1.20
21358;PMS7003;13506;50.852;20.632;2022-07-17T08:55:09;3.00;3.00;1.00
21358;PMS7003;13506;50.852;20.632;2022-07-17T08:57:39;3.80;3.80;1.80
21358;PMS7003;13506;50.852;20.632;2022-07-17T09:00:10;2.40;2.20;0.00
21358;PMS7003;13506;50.852;20.632;2022-07-17T09:02:53;4.00;4.00;1.60
21358;PMS7003;13506;50.852;20.632;2022-07-17T09:05:23;3.40;3.40;1.00
21358;PMS7003;13506;50.852;20.632;2022-07-17T09:07:53;5.00;3.20;0.60
21358;PMS7003;13506;50.852;20.632;2022-07-17T09:10:29;2.00;2.00;0.00
21358;PMS7003;13506;50.852;20.632;2022-07-17T09:13:12;2.80;2.80;0.80
21358;PMS7003;13506;50.852;20.632;2022-07-17T09:15:42;3.80;2.80;0.60
21358;PMS7003;13506;50.852;20.632;2022-07-17T09:18:12;3.80;3.40;1.00
21358;PMS7003;13506;50.852;20.632;2022-07-17T09:20:44;2.80;2.80;0.80
21358;PMS7003;13506;50.852;20.632;2022-07-17T09:23:14;2.80;2.20;0.80
21358;PMS7003;13506;50.852;20.632;2022-07-17T09:25:44;2.80;2.80;0.80
21358;PMS7003;13506;50.852;20.632;2022-07-17T09:28:14;4.00;2.80;0.80
21358;PMS7003;13506;50.852;20.632;2022-07-17T09:30:44;2.80;2.80;0.80
21358;PMS7003;13506;50.852;20.632;2022-07-17T09:33:16;1.80;1.80;0.00
21358;PMS7003;13506;50.852;20.632;2022-07-17T09:35:47;2.20;2.20;0.00
21358;PMS7003;13506;50.852;20.632;2022-07-17T09:38:26;2.00;2.00;0.80
21358;PMS7003;13506;50.852;20.632;2022-07-17T09:41:04;2.00;2.00;0.20
21358;PMS7003;13506;50.852;20.632;2022-07-17T09:43:43;2.00;2.00;0.00
21358;PMS7003;13506;50.852;20.632;2022-07-17T09:46:15;1.80;1.80;0.00
21358;PMS7003;13506;50.852;20.632;2022-07-17T09:48:48;2.00;2.00;0.00
21358;PMS7003;13506;50.852;20.632;2022-07-17T09:51:20;2.80;2.80;0.80
21358;PMS7003;13506;50.852;20.632;2022-07-17T09:53:51;2.40;2.40;0.00
21358;PMS7003;13506;50.852;20.632;2022-07-17T09:56:21;1.80;1.80;0.00
21358;PMS7003;13506;50.852;20.632;2022-07-17T09:58:52;3.60;3.60;1.00
21358;PMS7003;13506;50.852;20.632;2022-07-17T10:01:23;3.40;2.80;0.80
21358;PMS7003;13506;50.852;20.632;2022-07-17T10:03:52;1.80;1.80;0.40
21358;PMS7003;13506;50.852;20.632;2022-07-17T10:06:20;2.00;2.00;0.00
21358;PMS7003;13506;50.852;20.632;2022-07-17T10:08:48;3.60;3.60;0.80
21358;PMS7003;13506;50.852;20.632;2022-07-17T10:11:17;4.20;3.00;1.00
21358;PMS7003;13506;50.852;20.632;2022-07-17T10:13:48;2.60;2.60;0.60
21358;PMS7003;13506;50.852;20.632;2022-07-17T10:16:22;2.20;1.80;0.60
21358;PMS7003;13506;50.852;20.632;2022-07-17T10:18:54;2.20;2.20;0.20
21358;PMS7003;13506;50.852;20.632;2022-07-17T10:21:24;1.80;1.80;0.00
21358;PMS7003;13506;50.852;20.632;2022-07-17T10:24:06;2.80;2.80;0.20
21358;PMS7003;13506;50.852;20.632;2022-07-17T10:26:38;2.20;2.20;0.00
21358;PMS7003;13506;50.852;20.632;2022-07-17T10:29:25;3.00;3.00;0.00
21358;PMS7003;13506;50.852;20.632;2022-07-17T10:31:55;2.80;2.80;0.80
21358;PMS7003;13506;50.852;20.632;2022-07-17T10:34:38;3.00;3.00;0.20
21358;PMS7003;13506;50.852;20.632;2022-07-17T10:37:19;3.60;2.80;1.00
21358;PMS7003;13506;50.852;20.632;2022-07-17T10:39:56;2.80;1.80;0.60
21358;PMS7003;13506;50.852;20.632;2022-07-17T10:42:40;2.60;2.40;0.60
21358;PMS7003;13506;50.852;20.632;2022-07-17T10:45:26;4.20;4.20;2.00
21358;PMS7003;13506;50.852;20.632;2022-07-17T10:48:02;8.00;8.00;4.00
21358;PMS7003;13506;50.852;20.632;2022-07-17T10:50:34;3.00;2.80;0.80
21358;PMS7003;13506;50.852;20.632;2022-07-17T10:53:06;2.60;1.80;0.60
21358;PMS7003;13506;50.852;20.632;2022-07-17T10:55:41;2.20;2.20;0.40
21358;PMS7003;13506;50.852;20.632;2022-07-17T10:58:13;3.60;2.80;0.80
21358;PMS7003;13506;50.852;20.632;2022-07-17T11:00:58;3.80;3.00;1.00
21358;PMS7003;13506;50.852;20.632;2022-07-17T11:03:28;2.80;2.80;0.80
21358;PMS7003;13506;50.852;20.632;2022-07-17T11:06:06;2.60;2.40;0.20
21358;PMS7003;13506;50.852;20.632;2022-07-17T11:08:46;2.40;2.00;0.00
21358;PMS7003;13506;50.852;20.632;2022-07-17T11:11:17;2.80;2.80;0.80
21358;PMS7003;13506;50.852;20.632;2022-07-17T11:13:47;2.00;2.00;0.00
21358;PMS7003;13506;50.852;20.632;2022-07-17T11:16:23;1.40;1.40;0.00
21358;PMS7003;13506;50.852;20.632;2022-07-17T11:18:52;2.00;2.00;0.00
21358;PMS7003;13506;50.852;20.632;2022-07-17T11:21:23;5.40;5.40;3.00
21358;PMS7003;13506;50.852;20.632;2022-07-17T11:23:51;6.60;5.00;2.00
21358;PMS7003;13506;50.852;20.632;2022-07-17T11:26:21;7.80;5.40;2.00
21358;PMS7003;13506;50.852;20.632;2022-07-17T11:28:50;1.80;1.80;0.80
21358;PMS7003;13506;50.852;20.632;2022-07-17T11:31:18;2.00;2.00;0.00
21358;PMS7003;13506;50.852;20.632;2022-07-17T11:33:49;3.00;1.00;0.00
21358;PMS7003;13506;50.852;20.632;2022-07-17T11:36:19;3.60;3.60;0.60
21358;PMS7003;13506;50.852;20.632;2022-07-17T11:38:52;3.00;2.00;0.00
21358;PMS7003;13506;50.852;20.632;2022-07-17T11:41:21;3.00;3.00;1.00
21358;PMS7003;13506;50.852;20.632;2022-07-17T11:43:57;3.80;3.80;1.80
21358;PMS7003;13506;50.852;20.632;2022-07-17T11:46:25;2.00;2.00;0.00
21358;PMS7003;13506;50.852;20.632;2022-07-17T11:48:54;2.40;2.40;0.00
21358;PMS7003;13506;50.852;20.632;2022-07-17T11:51:33;3.00;3.00;1.00
21358;PMS7003;13506;50.852;20.632;2022-07-17T11:54:03;2.00;2.00;0.40
21358;PMS7003;13506;50.852;20.632;2022-07-17T11:56:33;2.60;2.60;0.40
21358;PMS7003;13506;50.852;20.632;2022-07-17T11:59:00;1.80;1.80;0.00
21358;PMS7003;13506;50.852;20.632;2022-07-17T12:01:29;1.80;1.80;0.60
21358;PMS7003;13506;50.852;20.632;2022-07-17T12:04:06;2.00;2.00;0.00
21358;PMS7003;13506;50.852;20.632;2022-07-17T12:06:37;1.80;1.80;0.20
21358;PMS7003;13506;50.852;20.632;2022-07-17T12:09:06;2.40;1.80;0.80
21358;PMS7003;13506;50.852;20.632;2022-07-17T12:11:44;2.80;2.80;0.80
21358;PMS7003;13506;50.852;20.632;2022-07-17T12:14:13;2.00;2.00;0.00
21358;PMS7003;13506;50.852;20.632;2022-07-17T12:16:41;2.40;2.40;0.60
21358;PMS7003;13506;50.852;20.632;2022-07-17T12:19:10;2.40;2.40;0.80
21358;PMS7003;13506;50.852;20.632;2022-07-17T12:21:55;2.20;1.80;0.00
21358;PMS7003;13506;50.852;20.632;2022-07-17T12:24:27;3.00;3.00;1.00
21358;PMS7003;13506;50.852;20.632;2022-07-17T12:26:57;2.20;2.20;0.20
21358;PMS7003;13506;50.852;20.632;2022-07-17T12:29:27;2.40;2.40;1.00
21358;PMS7003;13506;50.852;20.632;2022-07-17T12:32:04;3.00;3.00;1.00
21358;PMS7003;13506;50.852;20.632;2022-07-17T12:34:36;1.80;1.80;0.00
21358;PMS7003;13506;50.852;20.632;2022-07-17T12:37:11;2.20;2.20;0.00
21358;PMS7003;13506;50.852;20.632;2022-07-17T12:39:39;2.00;1.80;0.80
21358;PMS7003;13506;50.852;20.632;2022-07-17T12:42:06;2.20;1.80;0.00
21358;PMS7003;13506;50.852;20.632;2022-07-17T12:44:34;2.20;2.20;0.80
21358;PMS7003;13506;50.852;20.632;2022-07-17T12:47:02;6.40;5.40;2.80
21358;PMS7003;13506;50.852;20.632;2022-07-17T12:49:30;7.80;7.00;3.80
21358;PMS7003;13506;50.852;20.632;2022-07-17T12:51:58;11.00;9.00;4.60
21358;PMS7003;13506;50.852;20.632;2022-07-17T12:54:27;3.40;3.40;1.20
21358;PMS7003;13506;50.852;20.632;2022-07-17T12:56:57;2.00;2.00;0.00
21358;PMS7003;13506;50.852;20.632;2022-07-17T12:59:24;2.20;2.20;0.20
21358;PMS7003;13506;50.852;20.632;2022-07-17T13:01:51;4.00;2.80;0.80
21358;PMS7003;13506;50.852;20.632;2022-07-17T13:04:19;2.80;2.80;0.80
21358;PMS7003;13506;50.852;20.632;2022-07-17T13:06:47;2.00;2.00;0.20
21358;PMS7003;13506;50.852;20.632;2022-07-17T13:09:15;2.80;2.80;0.00
21358;PMS7003;13506;50.852;20.632;2022-07-17T13:11:44;2.80;2.80;0.20
21358;PMS7003;13506;50.852;20.632;2022-07-17T13:14:11;3.20;3.20;1.00
21358;PMS7003;13506;50.852;20.632;2022-07-17T13:16:39;2.60;2.20;0.00
21358;PMS7003;13506;50.852;20.632;2022-07-17T13:19:07;2.60;2.60;0.80
21358;PMS7003;13506;50.852;20.632;2022-07-17T13:21:34;1.80;1.80;0.20
21358;PMS7003;13506;50.852;20.632;2022-07-17T13:24:03;2.80;2.40;0.80
21358;PMS7003;13506;50.852;20.632;2022-07-17T13:26:32;11.00;8.80;4.40
21358;PMS7003;13506;50.852;20.632;2022-07-17T13:29:00;8.20;6.60;3.80
21358;PMS7003;13506;50.852;20.632;2022-07-17T13:31:28;4.80;2.80;1.80
21358;PMS7003;13506;50.852;20.632;2022-07-17T13:33:55;2.80;2.80;0.40
21358;PMS7003;13506;50.852;20.632;2022-07-17T13:36:23;2.80;2.80;0.00
21358;PMS7003;13506;50.852;20.632;2022-07-17T13:38:51;2.60;2.60;0.80
21358;PMS7003;13506;50.852;20.632;2022-07-17T13:41:18;3.80;3.80;0.80
21358;PMS7003;13506;50.852;20.632;2022-07-17T13:43:47;2.20;2.20;0.20
21358;PMS7003;13506;50.852;20.632;2022-07-17T13:46:17;4.20;4.20;1.60
21358;PMS7003;13506;50.852;20.632;2022-07-17T13:48:44;4.00;2.40;0.80
21358;PMS7003;13506;50.852;20.632;2022-07-17T13:51:12;3.60;2.60;1.00
21358;PMS7003;13506;50.852;20.632;2022-07-17T13:53:41;6.00;3.40;1.00
21358;PMS7003;13506;50.852;20.632;2022-07-17T13:56:08;2.20;2.20;0.80
21358;PMS7003;13506;50.852;20.632;2022-07-17T13:58:36;3.20;2.80;0.60
21358;PMS7003;13506;50.852;20.632;2022-07-17T14:01:04;2.80;2.80;0.80
21358;PMS7003;13506;50.852;20.632;2022-07-17T14:03:33;2.80;2.80;0.80
21358;PMS7003;13506;50.852;20.632;2022-07-17T14:06:00;3.00;3.00;0.80
21358;PMS7003;13506;50.852;20.632;2022-07-17T14:08:28;3.40;2.40;0.80
21358;PMS7003;13506;50.852;20.632;2022-07-17T14:10:56;7.00;4.00;1.00
21358;PMS7003;13506;50.852;20.632;2022-07-17T14:13:24;1.80;1.80;0.80
21358;PMS7003;13506;50.852;20.632;2022-07-17T14:15:51;3.40;3.40;1.00
21358;PMS7003;13506;50.852;20.632;2022-07-17T14:18:19;2.80;2.40;0.00
21358;PMS7003;13506;50.852;20.632;2022-07-17T14:20:48;2.80;2.80;0.80